sensor_id;sensor_type;location;lat;lon;timestamp;P1;durP1;ratioP1;P2;durP2;ratioP2
70920;SDS011;58572;48.110;19.838;2022-10-16T00:01:16;9.82;;;5.50;;
70920;SDS011;58572;48.110;19.838;2022-10-16T00:03:46;10.50;;;5.35;;
70920;SDS011;58572;48.110;19.838;2022-10-16T00:06:14;9.20;;;5.18;;
70920;SDS011;58572;48.110;19.838;2022-10-16T00:08:43;10.27;;;5.38;;
70920;SDS011;58572;48.110;19.838;2022-10-16T00:13:40;10.40;;;5.38;;
70920;SDS011;58572;48.110;19.838;2022-10-16T00:16:08;12.05;;;5.13;;
70920;SDS011;58572;48.110;19.838;2022-10-16T00:18:36;12.20;;;5.63;;
70920;SDS011;58572;48.110;19.838;2022-10-16T00:21:04;8.43;;;5.38;;
70920;SDS011;58572;48.110;19.838;2022-10-16T00:23:32;10.40;;;5.45;;
70920;SDS011;58572;48.110;19.838;2022-10-16T00:26:01;7.45;;;4.95;;
70920;SDS011;58572;48.110;19.838;2022-10-16T00:28:31;11.07;;;5.00;;
70920;SDS011;58572;48.110;19.838;2022-10-16T00:31:02;12.02;;;5.40;;
70920;SDS011;58572;48.110;19.838;2022-10-16T00:33:31;7.97;;;5.07;;
70920;SDS011;58572;48.110;19.838;2022-10-16T00:35:58;11.98;;;6.13;;
70920;SDS011;58572;48.110;19.838;2022-10-16T00:38:25;10.23;;;5.60;;
70920;SDS011;58572;48.110;19.838;2022-10-16T00:40:53;9.98;;;5.55;;
70920;SDS011;58572;48.110;19.838;2022-10-16T00:43:34;10.93;;;5.05;;
70920;SDS011;58572;48.110;19.838;2022-10-16T00:46:07;9.38;;;5.50;;
70920;SDS011;58572;48.110;19.838;2022-10-16T00:48:39;10.38;;;5.18;;
70920;SDS011;58572;48.110;19.838;2022-10-16T00:53:34;8.90;;;5.30;;
70920;SDS011;58572;48.110;19.838;2022-10-16T00:56:03;10.85;;;5.38;;
70920;SDS011;58572;48.110;19.838;2022-10-16T00:58:31;9.02;;;6.00;;
70920;SDS011;58572;48.110;19.838;2022-10-16T01:00:58;9.50;;;5.72;;
70920;SDS011;58572;48.110;19.838;2022-10-16T01:03:28;11.00;;;5.63;;
70920;SDS011;58572;48.110;19.838;2022-10-16T01:05:59;9.73;;;5.57;;
70920;SDS011;58572;48.110;19.838;2022-10-16T01:08:44;10.57;;;5.72;;
70920;SDS011;58572;48.110;19.838;2022-10-16T01:11:21;9.00;;;5.35;;
70920;SDS011;58572;48.110;19.838;2022-10-16T01:13:54;14.43;;;5.78;;
70920;SDS011;58572;48.110;19.838;2022-10-16T01:16:28;13.75;;;5.90;;
70920;SDS011;58572;48.110;19.838;2022-10-16T01:21:32;9.05;;;5.03;;
70920;SDS011;58572;48.110;19.838;2022-10-16T01:24:06;8.93;;;5.32;;
70920;SDS011;58572;48.110;19.838;2022-10-16T01:26:52;12.02;;;5.47;;
70920;SDS011;58572;48.110;19.838;2022-10-16T01:29:41;12.18;;;5.32;;
70920;SDS011;58572;48.110;19.838;2022-10-16T01:32:16;8.68;;;5.57;;
70920;SDS011;58572;48.110;19.838;2022-10-16T01:34:48;8.80;;;5.13;;
70920;SDS011;58572;48.110;19.838;2022-10-16T01:37:29;8.73;;;5.22;;
70920;SDS011;58572;48.110;19.838;2022-10-16T01:40:02;10.25;;;5.82;;
70920;SDS011;58572;48.110;19.838;2022-10-16T01:42:34;11.02;;;5.28;;
70920;SDS011;58572;48.110;19.838;2022-10-16T01:45:07;9.75;;;6.05;;
70920;SDS011;58572;48.110;19.838;2022-10-16T01:47:38;14.27;;;5.85;;
70920;SDS011;58572;48.110;19.838;2022-10-16T01:52:34;11.48;;;5.20;;
70920;SDS011;58572;48.110;19.838;2022-10-16T01:55:05;8.00;;;4.93;;
70920;SDS011;58572;48.110;19.838;2022-10-16T01:57:36;12.40;;;5.53;;
70920;SDS011;58572;48.110;19.838;2022-10-16T02:00:09;9.50;;;5.30;;
70920;SDS011;58572;48.110;19.838;2022-10-16T02:02:39;9.05;;;4.93;;
70920;SDS011;58572;48.110;19.838;2022-10-16T02:05:10;9.02;;;5.47;;
70920;SDS011;58572;48.110;19.838;2022-10-16T02:07:42;7.80;;;4.70;;
70920;SDS011;58572;48.110;19.838;2022-10-16T02:10:09;8.35;;;4.90;;
70920;SDS011;58572;48.110;19.838;2022-10-16T02:12:38;12.38;;;5.57;;
70920;SDS011;58572;48.110;19.838;2022-10-16T02:15:13;7.72;;;4.22;;
70920;SDS011;58572;48.110;19.838;2022-10-16T02:17:40;9.25;;;5.03;;
70920;SDS011;58572;48.110;19.838;2022-10-16T02:20:08;7.28;;;4.63;;
70920;SDS011;58572;48.110;19.838;2022-10-16T02:22:37;8.27;;;4.97;;
70920;SDS011;58572;48.110;19.838;2022-10-16T02:25:08;8.82;;;5.00;;
70920;SDS011;58572;48.110;19.838;2022-10-16T02:27:43;7.30;;;4.50;;
70920;SDS011;58572;48.110;19.838;2022-10-16T02:30:23;8.38;;;4.70;;
70920;SDS011;58572;48.110;19.838;2022-10-16T02:32:54;6.72;;;4.30;;
70920;SDS011;58572;48.110;19.838;2022-10-16T02:35:23;10.38;;;4.65;;
70920;SDS011;58572;48.110;19.838;2022-10-16T02:37:52;6.95;;;4.30;;
70920;SDS011;58572;48.110;19.838;2022-10-16T02:40:20;9.25;;;4.78;;
70920;SDS011;58572;48.110;19.838;2022-10-16T02:42:49;9.95;;;4.53;;
70920;SDS011;58572;48.110;19.838;2022-10-16T02:45:18;11.70;;;4.90;;
70920;SDS011;58572;48.110;19.838;2022-10-16T02:47:46;6.90;;;4.60;;
70920;SDS011;58572;48.110;19.838;2022-10-16T02:50:14;8.40;;;4.25;;
70920;SDS011;58572;48.110;19.838;2022-10-16T02:52:42;7.03;;;4.47;;
70920;SDS011;58572;48.110;19.838;2022-10-16T02:57:36;9.75;;;4.25;;
70920;SDS011;58572;48.110;19.838;2022-10-16T03:00:05;7.15;;;4.53;;
70920;SDS011;58572;48.110;19.838;2022-10-16T03:02:33;9.45;;;4.78;;
70920;SDS011;58572;48.110;19.838;2022-10-16T03:05:02;9.18;;;4.30;;
70920;SDS011;58572;48.110;19.838;2022-10-16T03:07:29;8.05;;;3.92;;
70920;SDS011;58572;48.110;19.838;2022-10-16T03:09:57;8.40;;;4.40;;
70920;SDS011;58572;48.110;19.838;2022-10-16T03:12:25;7.07;;;4.68;;
70920;SDS011;58572;48.110;19.838;2022-10-16T03:14:52;9.05;;;4.35;;
70920;SDS011;58572;48.110;19.838;2022-10-16T03:17:19;8.75;;;4.43;;
70920;SDS011;58572;48.110;19.838;2022-10-16T03:19:46;8.10;;;4.55;;
70920;SDS011;58572;48.110;19.838;2022-10-16T03:22:15;8.70;;;4.43;;
70920;SDS011;58572;48.110;19.838;2022-10-16T03:24:42;6.72;;;4.15;;
70920;SDS011;58572;48.110;19.838;2022-10-16T03:27:09;10.40;;;4.78;;
70920;SDS011;58572;48.110;19.838;2022-10-16T03:29:36;9.38;;;4.53;;
70920;SDS011;58572;48.110;19.838;2022-10-16T03:32:03;9.70;;;4.25;;
70920;SDS011;58572;48.110;19.838;2022-10-16T03:34:30;10.52;;;3.97;;
70920;SDS011;58572;48.110;19.838;2022-10-16T03:36:57;6.53;;;3.95;;
70920;SDS011;58572;48.110;19.838;2022-10-16T03:39:26;7.53;;;4.18;;
70920;SDS011;58572;48.110;19.838;2022-10-16T03:41:54;6.72;;;4.00;;
70920;SDS011;58572;48.110;19.838;2022-10-16T03:44:21;12.40;;;4.97;;
70920;SDS011;58572;48.110;19.838;2022-10-16T03:46:48;9.85;;;4.32;;
70920;SDS011;58572;48.110;19.838;2022-10-16T03:49:15;7.28;;;4.45;;
70920;SDS011;58572;48.110;19.838;2022-10-16T03:51:42;7.60;;;4.40;;
70920;SDS011;58572;48.110;19.838;2022-10-16T03:54:09;8.80;;;4.05;;
70920;SDS011;58572;48.110;19.838;2022-10-16T03:56:38;7.35;;;4.10;;
70920;SDS011;58572;48.110;19.838;2022-10-16T03:59:05;7.97;;;4.07;;
70920;SDS011;58572;48.110;19.838;2022-10-16T04:01:32;10.00;;;4.80;;
70920;SDS011;58572;48.110;19.838;2022-10-16T04:04:00;6.63;;;3.65;;
70920;SDS011;58572;48.110;19.838;2022-10-16T04:06:27;5.95;;;3.55;;
70920;SDS011;58572;48.110;19.838;2022-10-16T04:08:54;7.35;;;4.20;;
70920;SDS011;58572;48.110;19.838;2022-10-16T04:11:21;10.48;;;4.35;;
70920;SDS011;58572;48.110;19.838;2022-10-16T04:13:50;7.50;;;4.25;;
70920;SDS011;58572;48.110;19.838;2022-10-16T04:16:17;11.00;;;4.22;;
70920;SDS011;58572;48.110;19.838;2022-10-16T04:18:44;9.95;;;4.28;;
70920;SDS011;58572;48.110;19.838;2022-10-16T04:21:12;7.18;;;3.63;;
70920;SDS011;58572;48.110;19.838;2022-10-16T04:23:39;7.47;;;4.15;;
70920;SDS011;58572;48.110;19.838;2022-10-16T04:26:06;9.23;;;4.10;;
70920;SDS011;58572;48.110;19.838;2022-10-16T04:28:33;6.88;;;4.00;;
70920;SDS011;58572;48.110;19.838;2022-10-16T04:31:01;8.07;;;4.10;;
70920;SDS011;58572;48.110;19.838;2022-10-16T04:33:30;6.22;;;3.95;;
70920;SDS011;58572;48.110;19.838;2022-10-16T04:38:25;7.25;;;4.28;;
70920;SDS011;58572;48.110;19.838;2022-10-16T04:40:52;8.40;;;4.32;;
70920;SDS011;58572;48.110;19.838;2022-10-16T04:43:19;6.93;;;4.20;;
70920;SDS011;58572;48.110;19.838;2022-10-16T04:45:47;8.15;;;4.40;;
70920;SDS011;58572;48.110;19.838;2022-10-16T04:48:17;7.03;;;4.18;;
70920;SDS011;58572;48.110;19.838;2022-10-16T04:50:44;6.40;;;3.92;;
70920;SDS011;58572;48.110;19.838;2022-10-16T04:53:11;7.57;;;3.63;;
70920;SDS011;58572;48.110;19.838;2022-10-16T04:55:38;6.55;;;3.85;;
70920;SDS011;58572;48.110;19.838;2022-10-16T04:58:05;8.98;;;4.50;;
70920;SDS011;58572;48.110;19.838;2022-10-16T05:00:32;7.80;;;4.38;;
70920;SDS011;58572;48.110;19.838;2022-10-16T05:02:59;8.88;;;4.20;;
70920;SDS011;58572;48.110;19.838;2022-10-16T05:05:28;7.57;;;4.10;;
70920;SDS011;58572;48.110;19.838;2022-10-16T05:07:55;13.30;;;4.43;;
70920;SDS011;58572;48.110;19.838;2022-10-16T05:10:22;7.15;;;4.53;;
70920;SDS011;58572;48.110;19.838;2022-10-16T05:12:49;7.07;;;4.43;;
70920;SDS011;58572;48.110;19.838;2022-10-16T05:15:16;8.18;;;4.15;;
70920;SDS011;58572;48.110;19.838;2022-10-16T05:17:43;9.82;;;4.35;;
70920;SDS011;58572;48.110;19.838;2022-10-16T05:20:11;11.13;;;4.25;;
70920;SDS011;58572;48.110;19.838;2022-10-16T05:22:40;8.23;;;4.35;;
70920;SDS011;58572;48.110;19.838;2022-10-16T05:25:07;8.43;;;4.47;;
70920;SDS011;58572;48.110;19.838;2022-10-16T05:27:34;7.18;;;4.43;;
70920;SDS011;58572;48.110;19.838;2022-10-16T05:30:02;7.07;;;4.35;;
70920;SDS011;58572;48.110;19.838;2022-10-16T05:32:29;7.72;;;4.55;;
70920;SDS011;58572;48.110;19.838;2022-10-16T05:34:56;8.95;;;4.55;;
70920;SDS011;58572;48.110;19.838;2022-10-16T05:37:24;9.23;;;4.50;;
70920;SDS011;58572;48.110;19.838;2022-10-16T05:39:52;7.75;;;4.10;;
70920;SDS011;58572;48.110;19.838;2022-10-16T05:42:19;7.32;;;4.15;;
70920;SDS011;58572;48.110;19.838;2022-10-16T05:44:47;7.47;;;4.45;;
70920;SDS011;58572;48.110;19.838;2022-10-16T05:47:14;7.28;;;4.55;;
70920;SDS011;58572;48.110;19.838;2022-10-16T05:49:41;6.60;;;3.95;;
70920;SDS011;58572;48.110;19.838;2022-10-16T05:52:08;7.93;;;4.57;;
70920;SDS011;58572;48.110;19.838;2022-10-16T05:54:36;12.52;;;5.75;;
70920;SDS011;58572;48.110;19.838;2022-10-16T05:57:04;11.35;;;5.45;;
70920;SDS011;58572;48.110;19.838;2022-10-16T05:59:32;19.50;;;9.60;;
70920;SDS011;58572;48.110;19.838;2022-10-16T06:01:59;12.98;;;7.25;;
70920;SDS011;58572;48.110;19.838;2022-10-16T06:04:26;12.57;;;6.18;;
70920;SDS011;58572;48.110;19.838;2022-10-16T06:06:53;9.88;;;4.68;;
70920;SDS011;58572;48.110;19.838;2022-10-16T06:09:20;8.07;;;4.75;;
70920;SDS011;58572;48.110;19.838;2022-10-16T06:11:47;6.93;;;4.40;;
70920;SDS011;58572;48.110;19.838;2022-10-16T06:14:16;7.50;;;4.25;;
70920;SDS011;58572;48.110;19.838;2022-10-16T06:16:43;9.55;;;4.55;;
70920;SDS011;58572;48.110;19.838;2022-10-16T06:19:10;9.38;;;5.00;;
70920;SDS011;58572;48.110;19.838;2022-10-16T06:21:37;9.70;;;4.68;;
70920;SDS011;58572;48.110;19.838;2022-10-16T06:24:04;6.85;;;4.22;;
70920;SDS011;58572;48.110;19.838;2022-10-16T06:26:32;8.30;;;4.60;;
70920;SDS011;58572;48.110;19.838;2022-10-16T06:28:59;9.05;;;4.65;;
70920;SDS011;58572;48.110;19.838;2022-10-16T06:31:28;8.00;;;4.00;;
70920;SDS011;58572;48.110;19.838;2022-10-16T06:33:58;7.22;;;4.43;;
70920;SDS011;58572;48.110;19.838;2022-10-16T06:36:27;8.15;;;4.13;;
70920;SDS011;58572;48.110;19.838;2022-10-16T06:38:55;12.55;;;4.43;;
70920;SDS011;58572;48.110;19.838;2022-10-16T06:43:49;8.63;;;4.45;;
70920;SDS011;58572;48.110;19.838;2022-10-16T06:46:18;10.13;;;4.55;;
70920;SDS011;58572;48.110;19.838;2022-10-16T06:48:47;9.35;;;4.93;;
70920;SDS011;58572;48.110;19.838;2022-10-16T06:51:15;10.57;;;4.55;;
70920;SDS011;58572;48.110;19.838;2022-10-16T06:53:44;9.63;;;4.68;;
70920;SDS011;58572;48.110;19.838;2022-10-16T06:56:15;8.75;;;4.18;;
70920;SDS011;58572;48.110;19.838;2022-10-16T06:58:43;9.63;;;4.30;;
70920;SDS011;58572;48.110;19.838;2022-10-16T07:03:38;7.57;;;4.32;;
70920;SDS011;58572;48.110;19.838;2022-10-16T07:06:08;8.90;;;4.57;;
70920;SDS011;58572;48.110;19.838;2022-10-16T07:08:37;9.88;;;5.30;;
70920;SDS011;58572;48.110;19.838;2022-10-16T07:11:06;10.13;;;5.22;;
70920;SDS011;58572;48.110;19.838;2022-10-16T07:13:37;11.85;;;5.15;;
70920;SDS011;58572;48.110;19.838;2022-10-16T07:16:05;10.68;;;5.05;;
70920;SDS011;58572;48.110;19.838;2022-10-16T07:18:32;6.57;;;4.20;;
70920;SDS011;58572;48.110;19.838;2022-10-16T07:21:05;8.40;;;4.63;;
70920;SDS011;58572;48.110;19.838;2022-10-16T07:23:34;10.15;;;4.70;;
70920;SDS011;58572;48.110;19.838;2022-10-16T07:26:01;9.95;;;4.65;;
70920;SDS011;58572;48.110;19.838;2022-10-16T07:28:29;7.65;;;4.55;;
70920;SDS011;58572;48.110;19.838;2022-10-16T07:33:26;8.68;;;4.05;;
70920;SDS011;58572;48.110;19.838;2022-10-16T07:38:21;8.25;;;4.38;;
70920;SDS011;58572;48.110;19.838;2022-10-16T07:40:56;7.88;;;4.80;;
70920;SDS011;58572;48.110;19.838;2022-10-16T07:43:24;8.75;;;4.68;;
70920;SDS011;58572;48.110;19.838;2022-10-16T07:45:52;7.63;;;4.25;;
70920;SDS011;58572;48.110;19.838;2022-10-16T07:48:20;8.85;;;5.05;;
70920;SDS011;58572;48.110;19.838;2022-10-16T07:50:47;8.60;;;5.22;;
70920;SDS011;58572;48.110;19.838;2022-10-16T07:53:15;8.15;;;4.55;;
70920;SDS011;58572;48.110;19.838;2022-10-16T07:55:43;6.28;;;4.15;;
70920;SDS011;58572;48.110;19.838;2022-10-16T07:58:12;7.85;;;5.00;;
70920;SDS011;58572;48.110;19.838;2022-10-16T08:00:39;8.73;;;5.07;;
70920;SDS011;58572;48.110;19.838;2022-10-16T08:03:06;11.27;;;4.53;;
70920;SDS011;58572;48.110;19.838;2022-10-16T08:05:34;8.38;;;4.53;;
70920;SDS011;58572;48.110;19.838;2022-10-16T08:08:01;12.00;;;4.50;;
70920;SDS011;58572;48.110;19.838;2022-10-16T08:10:28;9.43;;;4.80;;
70920;SDS011;58572;48.110;19.838;2022-10-16T08:12:56;11.18;;;5.10;;
70920;SDS011;58572;48.110;19.838;2022-10-16T08:15:26;8.40;;;4.63;;
70920;SDS011;58572;48.110;19.838;2022-10-16T08:17:56;8.50;;;4.72;;
70920;SDS011;58572;48.110;19.838;2022-10-16T08:20:24;8.88;;;4.45;;
70920;SDS011;58572;48.110;19.838;2022-10-16T08:22:51;7.55;;;4.05;;
70920;SDS011;58572;48.110;19.838;2022-10-16T08:25:19;8.05;;;4.20;;
70920;SDS011;58572;48.110;19.838;2022-10-16T08:27:46;7.97;;;3.97;;
70920;SDS011;58572;48.110;19.838;2022-10-16T08:30:14;7.35;;;4.03;;
70920;SDS011;58572;48.110;19.838;2022-10-16T08:35:09;9.93;;;4.57;;
70920;SDS011;58572;48.110;19.838;2022-10-16T08:40:05;7.85;;;4.30;;
70920;SDS011;58572;48.110;19.838;2022-10-16T08:42:42;7.65;;;3.72;;
70920;SDS011;58572;48.110;19.838;2022-10-16T08:45:21;15.20;;;4.70;;
70920;SDS011;58572;48.110;19.838;2022-10-16T08:48:06;6.68;;;3.90;;
70920;SDS011;58572;48.110;19.838;2022-10-16T08:50:42;6.40;;;3.70;;
70920;SDS011;58572;48.110;19.838;2022-10-16T08:55:41;7.80;;;4.30;;
70920;SDS011;58572;48.110;19.838;2022-10-16T08:58:10;12.13;;;4.90;;
70920;SDS011;58572;48.110;19.838;2022-10-16T09:00:40;8.48;;;4.20;;
70920;SDS011;58572;48.110;19.838;2022-10-16T09:03:13;7.93;;;4.75;;
70920;SDS011;58572;48.110;19.838;2022-10-16T09:05:51;8.02;;;4.20;;
70920;SDS011;58572;48.110;19.838;2022-10-16T09:08:27;6.38;;;4.38;;
70920;SDS011;58572;48.110;19.838;2022-10-16T09:11:03;9.07;;;4.63;;
70920;SDS011;58572;48.110;19.838;2022-10-16T09:13:37;10.82;;;4.47;;
70920;SDS011;58572;48.110;19.838;2022-10-16T09:16:14;9.30;;;4.25;;
70920;SDS011;58572;48.110;19.838;2022-10-16T09:18:51;9.10;;;4.43;;
70920;SDS011;58572;48.110;19.838;2022-10-16T09:21:25;7.20;;;4.45;;
70920;SDS011;58572;48.110;19.838;2022-10-16T09:23:57;7.38;;;4.25;;
70920;SDS011;58572;48.110;19.838;2022-10-16T09:26:26;8.00;;;4.05;;
70920;SDS011;58572;48.110;19.838;2022-10-16T09:28:53;5.80;;;3.95;;
70920;SDS011;58572;48.110;19.838;2022-10-16T09:31:21;8.38;;;4.45;;
70920;SDS011;58572;48.110;19.838;2022-10-16T09:33:52;7.30;;;3.97;;
70920;SDS011;58572;48.110;19.838;2022-10-16T09:36:21;8.43;;;4.75;;
70920;SDS011;58572;48.110;19.838;2022-10-16T09:39:01;8.13;;;3.85;;
70920;SDS011;58572;48.110;19.838;2022-10-16T09:41:29;5.95;;;3.47;;
70920;SDS011;58572;48.110;19.838;2022-10-16T09:43:59;7.43;;;3.42;;
70920;SDS011;58572;48.110;19.838;2022-10-16T09:46:28;7.63;;;3.97;;
70920;SDS011;58572;48.110;19.838;2022-10-16T09:48:59;8.77;;;4.65;;
70920;SDS011;58572;48.110;19.838;2022-10-16T09:51:28;8.20;;;4.18;;
70920;SDS011;58572;48.110;19.838;2022-10-16T09:53:58;5.55;;;3.72;;
70920;SDS011;58572;48.110;19.838;2022-10-16T09:56:27;6.50;;;3.80;;
70920;SDS011;58572;48.110;19.838;2022-10-16T09:58:58;7.85;;;3.70;;
70920;SDS011;58572;48.110;19.838;2022-10-16T10:01:28;7.07;;;3.97;;
70920;SDS011;58572;48.110;19.838;2022-10-16T10:03:59;7.65;;;3.42;;
70920;SDS011;58572;48.110;19.838;2022-10-16T10:06:28;7.25;;;3.60;;
70920;SDS011;58572;48.110;19.838;2022-10-16T10:09:03;7.78;;;4.25;;
70920;SDS011;58572;48.110;19.838;2022-10-16T10:11:44;6.10;;;3.38;;
70920;SDS011;58572;48.110;19.838;2022-10-16T10:14:18;7.22;;;3.33;;
70920;SDS011;58572;48.110;19.838;2022-10-16T10:16:50;7.30;;;3.80;;
70920;SDS011;58572;48.110;19.838;2022-10-16T10:19:21;7.65;;;3.50;;
70920;SDS011;58572;48.110;19.838;2022-10-16T10:21:49;7.75;;;4.32;;
70920;SDS011;58572;48.110;19.838;2022-10-16T10:24:17;6.30;;;3.83;;
70920;SDS011;58572;48.110;19.838;2022-10-16T10:26:50;7.20;;;3.78;;
70920;SDS011;58572;48.110;19.838;2022-10-16T10:29:27;5.65;;;3.35;;
70920;SDS011;58572;48.110;19.838;2022-10-16T10:32:05;6.43;;;3.60;;
70920;SDS011;58572;48.110;19.838;2022-10-16T10:37:57;6.47;;;3.67;;
70920;SDS011;58572;48.110;19.838;2022-10-16T10:40:35;8.98;;;3.88;;
70920;SDS011;58572;48.110;19.838;2022-10-16T10:43:10;6.28;;;3.63;;
70920;SDS011;58572;48.110;19.838;2022-10-16T10:45:48;7.25;;;3.70;;
70920;SDS011;58572;48.110;19.838;2022-10-16T10:48:34;8.43;;;4.05;;
70920;SDS011;58572;48.110;19.838;2022-10-16T10:51:16;7.28;;;3.70;;
70920;SDS011;58572;48.110;19.838;2022-10-16T10:53:51;7.18;;;3.40;;
70920;SDS011;58572;48.110;19.838;2022-10-16T10:56:37;6.85;;;3.75;;
70920;SDS011;58572;48.110;19.838;2022-10-16T11:02:04;8.35;;;3.50;;
70920;SDS011;58572;48.110;19.838;2022-10-16T11:07:45;6.18;;;3.03;;
70920;SDS011;58572;48.110;19.838;2022-10-16T11:10:17;7.80;;;4.28;;
70920;SDS011;58572;48.110;19.838;2022-10-16T11:12:49;7.45;;;3.80;;
70920;SDS011;58572;48.110;19.838;2022-10-16T11:15:21;6.78;;;3.28;;
70920;SDS011;58572;48.110;19.838;2022-10-16T11:17:53;5.57;;;2.80;;
70920;SDS011;58572;48.110;19.838;2022-10-16T11:20:29;5.97;;;4.13;;
70920;SDS011;58572;48.110;19.838;2022-10-16T11:23:02;5.80;;;3.28;;
70920;SDS011;58572;48.110;19.838;2022-10-16T11:25:40;5.20;;;3.15;;
70920;SDS011;58572;48.110;19.838;2022-10-16T11:28:10;4.97;;;3.03;;
70920;SDS011;58572;48.110;19.838;2022-10-16T11:30:41;5.90;;;3.30;;
70920;SDS011;58572;48.110;19.838;2022-10-16T11:36:03;6.10;;;3.20;;
70920;SDS011;58572;48.110;19.838;2022-10-16T11:38:41;6.32;;;3.42;;
70920;SDS011;58572;48.110;19.838;2022-10-16T11:41:17;6.18;;;3.33;;
70920;SDS011;58572;48.110;19.838;2022-10-16T11:43:52;6.93;;;3.05;;
70920;SDS011;58572;48.110;19.838;2022-10-16T11:46:33;6.22;;;3.15;;
70920;SDS011;58572;48.110;19.838;2022-10-16T11:49:07;7.20;;;3.38;;
70920;SDS011;58572;48.110;19.838;2022-10-16T11:51:40;9.63;;;3.55;;
70920;SDS011;58572;48.110;19.838;2022-10-16T11:54:16;5.20;;;2.85;;
70920;SDS011;58572;48.110;19.838;2022-10-16T11:56:52;8.25;;;2.97;;
70920;SDS011;58572;48.110;19.838;2022-10-16T11:59:24;8.38;;;3.53;;
70920;SDS011;58572;48.110;19.838;2022-10-16T12:01:59;5.38;;;2.53;;
70920;SDS011;58572;48.110;19.838;2022-10-16T12:04:48;6.70;;;3.00;;
70920;SDS011;58572;48.110;19.838;2022-10-16T12:07:26;6.22;;;3.28;;
70920;SDS011;58572;48.110;19.838;2022-10-16T12:10:10;8.02;;;4.00;;
70920;SDS011;58572;48.110;19.838;2022-10-16T12:12:46;7.10;;;3.53;;
70920;SDS011;58572;48.110;19.838;2022-10-16T12:15:20;5.95;;;3.22;;
70920;SDS011;58572;48.110;19.838;2022-10-16T12:17:50;10.73;;;4.10;;
70920;SDS011;58572;48.110;19.838;2022-10-16T12:20:25;5.55;;;3.25;;
70920;SDS011;58572;48.110;19.838;2022-10-16T12:22:56;11.32;;;3.90;;
70920;SDS011;58572;48.110;19.838;2022-10-16T12:25:27;7.28;;;3.60;;
70920;SDS011;58572;48.110;19.838;2022-10-16T12:27:57;9.35;;;3.72;;
70920;SDS011;58572;48.110;19.838;2022-10-16T12:30:27;8.07;;;3.50;;
70920;SDS011;58572;48.110;19.838;2022-10-16T12:32:57;10.15;;;3.63;;
70920;SDS011;58572;48.110;19.838;2022-10-16T12:35:27;6.78;;;3.63;;
70920;SDS011;58572;48.110;19.838;2022-10-16T12:38:04;6.93;;;3.60;;
70920;SDS011;58572;48.110;19.838;2022-10-16T12:40:35;6.55;;;3.15;;
70920;SDS011;58572;48.110;19.838;2022-10-16T12:43:11;6.28;;;3.47;;
70920;SDS011;58572;48.110;19.838;2022-10-16T12:45:58;5.85;;;3.30;;
70920;SDS011;58572;48.110;19.838;2022-10-16T12:48:26;7.32;;;3.45;;
70920;SDS011;58572;48.110;19.838;2022-10-16T12:53:21;6.82;;;2.83;;
70920;SDS011;58572;48.110;19.838;2022-10-16T12:56:03;4.90;;;2.83;;
70920;SDS011;58572;48.110;19.838;2022-10-16T12:58:50;6.45;;;3.15;;
70920;SDS011;58572;48.110;19.838;2022-10-16T13:01:34;5.47;;;2.92;;
70920;SDS011;58572;48.110;19.838;2022-10-16T13:07:21;5.10;;;2.63;;
70920;SDS011;58572;48.110;19.838;2022-10-16T13:10:06;7.75;;;3.22;;
70920;SDS011;58572;48.110;19.838;2022-10-16T13:18:21;4.72;;;3.05;;
70920;SDS011;58572;48.110;19.838;2022-10-16T13:20:59;6.30;;;3.15;;
70920;SDS011;58572;48.110;19.838;2022-10-16T13:23:35;6.32;;;3.17;;
70920;SDS011;58572;48.110;19.838;2022-10-16T13:26:14;9.07;;;3.70;;
70920;SDS011;58572;48.110;19.838;2022-10-16T13:28:51;8.60;;;3.28;;
70920;SDS011;58572;48.110;19.838;2022-10-16T13:31:20;6.20;;;3.10;;
70920;SDS011;58572;48.110;19.838;2022-10-16T13:33:49;6.20;;;2.70;;
70920;SDS011;58572;48.110;19.838;2022-10-16T13:36:21;6.65;;;3.05;;
70920;SDS011;58572;48.110;19.838;2022-10-16T13:38:57;8.52;;;3.22;;
70920;SDS011;58572;48.110;19.838;2022-10-16T13:41:27;7.00;;;3.20;;
70920;SDS011;58572;48.110;19.838;2022-10-16T13:43:56;6.25;;;3.33;;
70920;SDS011;58572;48.110;19.838;2022-10-16T13:46:23;8.52;;;3.45;;
70920;SDS011;58572;48.110;19.838;2022-10-16T13:48:58;7.63;;;3.63;;
70920;SDS011;58572;48.110;19.838;2022-10-16T13:51:26;7.05;;;3.03;;
70920;SDS011;58572;48.110;19.838;2022-10-16T13:53:55;5.03;;;2.92;;
70920;SDS011;58572;48.110;19.838;2022-10-16T13:56:25;4.85;;;2.90;;
70920;SDS011;58572;48.110;19.838;2022-10-16T13:59:01;6.50;;;3.70;;
70920;SDS011;58572;48.110;19.838;2022-10-16T14:01:30;7.25;;;3.35;;
70920;SDS011;58572;48.110;19.838;2022-10-16T14:04:01;5.80;;;3.20;;
70920;SDS011;58572;48.110;19.838;2022-10-16T14:06:30;7.65;;;3.50;;
70920;SDS011;58572;48.110;19.838;2022-10-16T14:08:59;7.93;;;3.65;;
70920;SDS011;58572;48.110;19.838;2022-10-16T14:11:32;6.35;;;3.72;;
70920;SDS011;58572;48.110;19.838;2022-10-16T14:14:02;7.07;;;3.90;;
70920;SDS011;58572;48.110;19.838;2022-10-16T14:16:30;5.53;;;3.13;;
70920;SDS011;58572;48.110;19.838;2022-10-16T14:18:59;5.25;;;3.53;;
70920;SDS011;58572;48.110;19.838;2022-10-16T14:21:28;5.85;;;2.97;;
70920;SDS011;58572;48.110;19.838;2022-10-16T14:23:55;7.88;;;3.30;;
70920;SDS011;58572;48.110;19.838;2022-10-16T14:26:25;5.80;;;3.35;;
70920;SDS011;58572;48.110;19.838;2022-10-16T14:29:12;8.48;;;3.35;;
70920;SDS011;58572;48.110;19.838;2022-10-16T14:31:40;5.88;;;4.07;;
70920;SDS011;58572;48.110;19.838;2022-10-16T14:34:23;7.00;;;4.32;;
70920;SDS011;58572;48.110;19.838;2022-10-16T14:36:52;6.97;;;3.40;;
70920;SDS011;58572;48.110;19.838;2022-10-16T14:39:21;6.45;;;3.50;;
70920;SDS011;58572;48.110;19.838;2022-10-16T14:41:50;6.45;;;3.42;;
70920;SDS011;58572;48.110;19.838;2022-10-16T14:44:26;6.03;;;3.58;;
70920;SDS011;58572;48.110;19.838;2022-10-16T14:46:56;6.75;;;3.30;;
70920;SDS011;58572;48.110;19.838;2022-10-16T14:49:25;7.00;;;3.78;;
70920;SDS011;58572;48.110;19.838;2022-10-16T14:51:53;5.57;;;3.42;;
70920;SDS011;58572;48.110;19.838;2022-10-16T14:54:20;7.05;;;3.40;;
70920;SDS011;58572;48.110;19.838;2022-10-16T14:56:48;7.55;;;3.45;;
70920;SDS011;58572;48.110;19.838;2022-10-16T14:59:18;8.57;;;3.50;;
70920;SDS011;58572;48.110;19.838;2022-10-16T15:01:51;10.90;;;3.88;;
70920;SDS011;58572;48.110;19.838;2022-10-16T15:04:18;7.93;;;3.85;;
70920;SDS011;58572;48.110;19.838;2022-10-16T15:06:45;8.70;;;3.92;;
70920;SDS011;58572;48.110;19.838;2022-10-16T15:09:12;6.75;;;3.65;;
70920;SDS011;58572;48.110;19.838;2022-10-16T15:11:39;5.93;;;3.53;;
70920;SDS011;58572;48.110;19.838;2022-10-16T15:14:08;6.78;;;3.67;;
70920;SDS011;58572;48.110;19.838;2022-10-16T15:16:38;6.25;;;3.72;;
70920;SDS011;58572;48.110;19.838;2022-10-16T15:19:06;7.05;;;3.25;;
70920;SDS011;58572;48.110;19.838;2022-10-16T15:21:33;5.47;;;3.45;;
70920;SDS011;58572;48.110;19.838;2022-10-16T15:24:00;5.80;;;3.55;;
70920;SDS011;58572;48.110;19.838;2022-10-16T15:26:28;6.13;;;3.58;;
70920;SDS011;58572;48.110;19.838;2022-10-16T15:28:56;9.18;;;3.75;;
70920;SDS011;58572;48.110;19.838;2022-10-16T15:31:24;6.18;;;3.40;;
70920;SDS011;58572;48.110;19.838;2022-10-16T15:33:51;6.30;;;3.45;;
70920;SDS011;58572;48.110;19.838;2022-10-16T15:36:28;7.93;;;3.70;;
70920;SDS011;58572;48.110;19.838;2022-10-16T15:38:58;7.72;;;3.58;;
70920;SDS011;58572;48.110;19.838;2022-10-16T15:41:26;5.93;;;3.47;;
70920;SDS011;58572;48.110;19.838;2022-10-16T15:43:53;7.72;;;3.90;;
70920;SDS011;58572;48.110;19.838;2022-10-16T15:46:22;7.70;;;3.90;;
70920;SDS011;58572;48.110;19.838;2022-10-16T15:48:50;8.20;;;3.40;;